createdAt,value
2019-04-28T00:00:44.062Z,79.08
2019-04-28T00:01:44.013Z,79.08
2019-04-28T00:02:44.003Z,79.08
2019-04-28T00:03:43.992Z,79.28
2019-04-28T00:04:43.983Z,79.18
2019-04-28T00:05:43.971Z,78.98
2019-04-28T00:06:43.982Z,78.94
2019-04-28T00:07:43.948Z,79.08
2019-04-28T00:08:43.936Z,79.18
2019-04-28T00:09:43.927Z,79.49
2019-04-28T00:10:43.920Z,79.18
2019-04-28T00:11:43.942Z,79.49
2019-04-28T00:12:43.894Z,80.10
2019-04-28T00:13:43.886Z,79.90
2019-04-28T00:14:43.873Z,80.00
2019-04-28T00:15:43.861Z,79.80
2019-04-28T00:16:43.851Z,80.30
2019-04-28T00:17:43.875Z,80.30
2019-04-28T00:18:43.831Z,80.51
2019-04-28T00:19:43.818Z,80.71
2019-04-28T00:20:43.808Z,80.82
2019-04-28T00:21:43.796Z,81.12
2019-04-28T00:22:43.786Z,80.51
2019-04-28T00:23:43.812Z,81.23
2019-04-28T00:24:43.762Z,80.91
2019-04-28T00:25:43.753Z,81.53
2019-04-28T00:26:43.747Z,81.12
2019-04-28T00:27:43.732Z,80.61
2019-04-28T00:28:43.720Z,81.12
2019-04-28T00:29:46.251Z,81.63
2019-04-28T00:30:43.698Z,81.94
2019-04-28T00:31:43.687Z,81.73
2019-04-28T00:32:43.679Z,81.73
2019-04-28T00:33:43.703Z,81.94
2019-04-28T00:34:43.680Z,81.73
2019-04-28T00:35:43.645Z,81.43
2019-04-28T00:36:43.640Z,82.24
2019-04-28T00:37:43.628Z,82.24
2019-04-28T00:38:43.611Z,82.04
2019-04-28T00:39:43.624Z,82.04
2019-04-28T00:40:43.589Z,82.04
2019-04-28T00:41:43.577Z,82.24
2019-04-28T00:42:43.566Z,82.39
2019-04-28T00:43:43.555Z,82.49
2019-04-28T00:44:43.648Z,82.79
2019-04-28T00:45:43.534Z,82.89
2019-04-28T00:46:43.524Z,82.89
2019-04-28T00:47:43.514Z,82.79
2019-04-28T00:48:43.502Z,82.79
2019-04-28T00:49:43.491Z,82.89
2019-04-28T00:50:43.822Z,83.00
2019-04-28T00:51:43.476Z,83.81
2019-04-28T00:52:43.459Z,83.51
2019-04-28T00:53:43.449Z,83.00
2019-04-28T00:54:43.437Z,83.20
2019-04-28T00:55:43.429Z,83.92
2019-04-28T00:56:43.439Z,83.92
2019-04-28T00:57:43.406Z,83.20
2019-04-28T00:58:43.397Z,83.10
2019-04-28T00:59:54.151Z,83.92
2019-04-28T01:00:44.370Z,83.61
2019-04-28T01:01:43.401Z,83.51
2019-04-28T01:02:43.349Z,83.40
2019-04-28T01:03:43.337Z,83.30
2019-04-28T01:04:43.325Z,83.10
2019-04-28T01:05:43.316Z,83.20
2019-04-28T01:06:43.304Z,82.89
2019-04-28T01:07:43.319Z,83.14
2019-04-28T01:08:43.296Z,83.40
2019-04-28T01:09:43.271Z,83.00
2019-04-28T01:10:43.260Z,83.20
2019-04-28T01:11:43.251Z,83.81
2019-04-28T01:12:46.340Z,83.71
2019-04-28T01:13:43.229Z,83.00
2019-04-28T01:14:43.532Z,83.10
2019-04-28T01:15:43.206Z,83.30
2019-04-28T01:16:43.195Z,82.89
2019-04-28T01:17:43.223Z,83.65
2019-04-28T01:18:43.171Z,83.75
2019-04-28T01:19:43.162Z,84.06
2019-04-28T01:20:43.151Z,83.95
2019-04-28T01:21:43.140Z,83.44
2019-04-28T01:22:43.127Z,83.85
2019-04-28T01:23:43.154Z,83.54
2019-04-28T01:24:43.110Z,83.14
2019-04-28T01:25:43.096Z,83.54
2019-04-28T01:26:43.083Z,82.93
2019-04-28T01:27:43.073Z,83.95
2019-04-28T01:28:43.064Z,83.34
2019-04-28T01:29:43.088Z,83.69
2019-04-28T01:30:43.040Z,84.00
2019-04-28T01:31:43.034Z,83.89
2019-04-28T01:32:43.016Z,84.00
2019-04-28T01:33:43.006Z,84.00
2019-04-28T01:34:42.995Z,84.44
2019-04-28T01:35:43.009Z,84.09
2019-04-28T01:36:42.977Z,84.34
2019-04-28T01:37:42.973Z,84.20
2019-04-28T01:38:42.948Z,84.71
2019-04-28T01:39:42.937Z,84.71
2019-04-28T01:40:42.953Z,84.61
2019-04-28T01:41:42.915Z,84.50
2019-04-28T01:42:42.903Z,84.50
2019-04-28T01:43:42.892Z,84.71
2019-04-28T01:44:42.883Z,84.00
2019-04-28T01:45:42.906Z,84.20
2019-04-28T01:46:42.863Z,84.09
2019-04-28T01:47:42.862Z,83.79
2019-04-28T01:48:42.839Z,83.93
2019-04-28T01:49:42.827Z,84.14
2019-04-28T01:50:42.813Z,84.03
2019-04-28T01:51:42.839Z,84.03
2019-04-28T01:52:42.794Z,84.03
2019-04-28T01:53:42.781Z,84.24
2019-04-28T01:54:42.774Z,84.28
2019-04-28T01:55:42.761Z,84.07
2019-04-28T01:56:42.750Z,84.07
2019-04-28T01:57:42.782Z,84.69
2019-04-28T01:58:42.728Z,84.93
2019-04-28T01:59:42.719Z,85.34
2019-04-28T02:00:42.709Z,85.44
2019-04-28T02:01:42.698Z,85.03
2019-04-28T02:02:42.720Z,85.34
2019-04-28T02:03:42.675Z,85.34
2019-04-28T02:04:42.662Z,84.83
2019-04-28T02:05:42.657Z,85.03
2019-04-28T02:06:42.644Z,84.93
2019-04-28T02:07:42.629Z,84.63
2019-04-28T02:08:42.645Z,84.72
2019-04-28T02:09:42.609Z,85.14
2019-04-28T02:10:42.610Z,84.72
2019-04-28T02:11:42.592Z,84.63
2019-04-28T02:12:42.578Z,84.42
2019-04-28T02:13:42.602Z,84.31
2019-04-28T02:14:42.555Z,84.31
2019-04-28T02:15:42.549Z,84.42
2019-04-28T02:16:42.534Z,84.56
2019-04-28T02:17:42.525Z,84.66
2019-04-28T02:18:42.513Z,84.56
2019-04-28T02:19:42.537Z,84.77
2019-04-28T02:20:42.491Z,84.25
2019-04-28T02:21:42.483Z,84.11
2019-04-28T02:22:42.471Z,83.33
2019-04-28T02:23:42.459Z,84.15
2019-04-28T02:24:42.448Z,84.25
2019-04-28T02:25:42.463Z,84.15
2019-04-28T02:26:42.427Z,83.84
2019-04-28T02:27:42.416Z,83.95
2019-04-28T02:28:42.405Z,83.13
2019-04-28T02:29:42.395Z,82.71
2019-04-28T02:30:49.531Z,82.71
2019-04-28T02:31:43.372Z,82.45
2019-04-28T02:32:42.364Z,82.45
2019-04-28T02:33:42.361Z,82.65
2019-04-28T02:34:42.340Z,82.62
2019-04-28T02:35:42.544Z,82.41
2019-04-28T02:36:42.322Z,82.55
2019-04-28T02:37:42.309Z,82.65
2019-04-28T02:38:42.298Z,82.76
2019-04-28T02:39:42.289Z,82.35
2019-04-28T02:40:42.317Z,82.86
2019-04-28T02:41:42.268Z,82.86
2019-04-28T02:42:42.254Z,82.86
2019-04-28T02:43:42.269Z,82.86
2019-04-28T02:44:42.233Z,82.86
2019-04-28T02:45:42.231Z,82.76
2019-04-28T02:46:42.238Z,82.96
2019-04-28T02:47:42.419Z,82.76
2019-04-28T02:48:42.200Z,82.86
2019-04-28T02:49:42.181Z,82.76
2019-04-28T02:50:42.175Z,82.76
2019-04-28T02:51:42.182Z,82.86
2019-04-28T02:52:42.150Z,83.06
2019-04-28T02:53:42.137Z,82.96
2019-04-28T02:54:42.124Z,82.90
2019-04-28T02:55:42.117Z,82.96
2019-04-28T02:56:43.753Z,82.86
2019-04-28T02:57:42.092Z,82.65
2019-04-28T02:58:42.082Z,82.65
2019-04-28T02:59:44.727Z,82.86
2019-04-28T03:01:00.453Z,82.79
2019-04-28T03:01:43.083Z,83.31
2019-04-28T03:02:42.040Z,83.31
2019-04-28T03:03:42.032Z,83.61
2019-04-28T03:04:42.020Z,84.12
2019-04-28T03:05:42.008Z,84.12
2019-04-28T03:06:41.997Z,83.51
2019-04-28T03:07:42.021Z,83.82
2019-04-28T03:08:41.973Z,84.23
2019-04-28T03:09:41.968Z,83.51
2019-04-28T03:10:41.951Z,83.31
2019-04-28T03:11:43.144Z,83.10
2019-04-28T03:12:41.933Z,82.35
2019-04-28T03:13:41.972Z,82.69
2019-04-28T03:14:44.027Z,82.69
2019-04-28T03:15:41.898Z,82.69
2019-04-28T03:16:41.887Z,82.79
2019-04-28T03:17:41.878Z,82.35
2019-04-28T03:18:41.866Z,82.45
2019-04-28T03:19:41.911Z,82.90
2019-04-28T03:20:42.139Z,82.90
2019-04-28T03:21:41.832Z,82.79
2019-04-28T03:22:41.819Z,83.10
2019-04-28T03:23:41.809Z,83.00
2019-04-28T03:24:41.823Z,83.82
2019-04-28T03:25:41.786Z,84.03
2019-04-28T03:26:41.776Z,83.72
2019-04-28T03:27:41.768Z,84.33
2019-04-28T03:28:41.754Z,84.44
2019-04-28T03:29:41.781Z,84.33
2019-04-28T03:30:43.831Z,84.95
2019-04-28T03:32:04.179Z,85.36
2019-04-28T03:32:52.478Z,85.77
2019-04-28T03:33:48.724Z,86.07
2019-04-28T03:34:43.948Z,85.77
2019-04-28T03:35:44.056Z,86.69
2019-04-28T03:36:41.665Z,87.71
2019-04-28T03:37:41.655Z,87.71
2019-04-28T03:38:41.643Z,87.10
2019-04-28T03:39:41.631Z,87.04
2019-04-28T03:40:41.698Z,87.55
2019-04-28T03:41:41.612Z,88.68
2019-04-28T03:42:41.606Z,88.68
2019-04-28T03:43:41.592Z,88.68
2019-04-28T03:44:41.752Z,88.68
2019-04-28T03:45:41.588Z,89.39
2019-04-28T03:46:41.554Z,89.50
2019-04-28T03:47:41.545Z,89.90
2019-04-28T03:48:41.532Z,89.19
2019-04-28T03:49:43.371Z,89.29
2019-04-28T03:50:41.707Z,89.81
2019-04-28T03:51:41.498Z,89.64
2019-04-28T03:52:41.679Z,90.01
2019-04-28T03:53:41.477Z,89.39
2019-04-28T03:54:41.466Z,90.11
2019-04-28T03:55:41.777Z,90.32
2019-04-28T03:56:41.453Z,89.75
2019-04-28T03:57:41.501Z,90.11
2019-04-28T03:58:41.421Z,90.11
2019-04-28T03:59:43.835Z,89.39
2019-04-28T04:00:41.403Z,89.50
2019-04-28T04:01:55.395Z,90.16
2019-04-28T04:02:42.375Z,89.81
2019-04-28T04:03:41.942Z,89.39
2019-04-28T04:04:41.673Z,89.60
2019-04-28T04:05:41.357Z,89.97
2019-04-28T04:06:41.330Z,90.11
2019-04-28T04:07:43.233Z,89.90
2019-04-28T04:08:41.356Z,89.95
2019-04-28T04:09:41.503Z,90.32
2019-04-28T04:10:41.298Z,90.46
2019-04-28T04:11:41.278Z,90.62
2019-04-28T04:12:41.471Z,91.28
2019-04-28T04:13:41.766Z,91.03
2019-04-28T04:14:47.504Z,91.35
2019-04-28T04:15:41.474Z,91.28
2019-04-28T04:16:41.222Z,91.14
2019-04-28T04:17:41.504Z,91.28
2019-04-28T04:18:41.230Z,91.28
2019-04-28T04:19:41.196Z,91.38
2019-04-28T04:20:41.224Z,91.55
2019-04-28T04:21:41.168Z,91.38
2019-04-28T04:22:41.307Z,92.31
2019-04-28T04:23:41.378Z,91.90
2019-04-28T04:24:41.134Z,91.90
2019-04-28T04:25:41.847Z,92.00
2019-04-28T04:26:41.234Z,92.00
2019-04-28T04:27:41.103Z,91.80
2019-04-28T04:28:41.852Z,91.80
2019-04-28T04:29:43.620Z,92.10
2019-04-28T04:30:41.195Z,92.41
2019-04-28T04:31:41.492Z,91.80
2019-04-28T04:32:41.331Z,91.80
2019-04-28T04:33:41.493Z,92.10
2019-04-28T04:34:41.057Z,92.21
2019-04-28T04:35:43.554Z,92.41
2019-04-28T04:36:41.865Z,92.21
2019-04-28T04:37:40.995Z,92.41
2019-04-28T04:38:45.877Z,92.41
2019-04-28T04:39:42.008Z,92.51
2019-04-28T04:40:41.492Z,92.10
2019-04-28T04:41:43.827Z,92.93
2019-04-28T04:42:40.941Z,92.31
2019-04-28T04:43:41.695Z,92.36
2019-04-28T04:44:41.650Z,92.61
2019-04-28T04:45:40.930Z,92.51
2019-04-28T04:46:41.597Z,92.31
2019-04-28T04:47:40.885Z,92.51
2019-04-28T04:48:40.908Z,92.31
2019-04-28T04:49:40.862Z,92.61
2019-04-28T04:50:41.285Z,92.21
2019-04-28T04:51:43.854Z,92.31
2019-04-28T04:52:40.828Z,92.41
2019-04-28T04:53:40.916Z,91.96
2019-04-28T04:54:40.807Z,92.72
2019-04-28T04:55:41.138Z,92.78
2019-04-28T04:56:40.786Z,92.72
2019-04-28T04:57:40.984Z,92.31
2019-04-28T04:58:40.951Z,92.06
2019-04-28T04:59:40.751Z,91.24
2019-04-28T05:00:43.259Z,91.75
2019-04-28T05:01:40.964Z,91.24
2019-04-28T05:02:46.161Z,91.35
2019-04-28T05:03:41.704Z,91.96
2019-04-28T05:04:40.694Z,91.86
2019-04-28T05:05:40.684Z,91.55
2019-04-28T05:06:41.515Z,90.89
2019-04-28T05:07:40.692Z,90.42
2019-04-28T05:08:40.650Z,90.42
2019-04-28T05:09:40.639Z,90.93
2019-04-28T05:10:40.627Z,90.32
2019-04-28T05:11:40.620Z,90.42
2019-04-28T05:12:40.632Z,90.83
2019-04-28T05:13:40.594Z,90.62
2019-04-28T05:14:40.582Z,90.73
2019-04-28T05:15:40.572Z,90.52
2019-04-28T05:16:40.563Z,91.03
2019-04-28T05:17:40.587Z,91.08
2019-04-28T05:18:41.761Z,91.14
2019-04-28T05:19:40.530Z,91.24
2019-04-28T05:20:40.544Z,91.69
2019-04-28T05:21:40.629Z,92.10
2019-04-28T05:22:42.640Z,92.51
2019-04-28T05:23:41.049Z,92.68
2019-04-28T05:24:40.470Z,92.57
2019-04-28T05:25:40.461Z,92.41
2019-04-28T05:26:47.361Z,92.16
2019-04-28T05:27:41.440Z,92.68
2019-04-28T05:28:43.316Z,92.78
2019-04-28T05:29:41.449Z,92.61
2019-04-28T05:30:43.000Z,92.82
2019-04-28T05:31:40.398Z,92.61
2019-04-28T05:32:45.543Z,92.21
2019-04-28T05:33:42.083Z,92.21
2019-04-28T05:34:46.538Z,92.21
2019-04-28T05:35:41.372Z,92.57
2019-04-28T05:36:44.336Z,92.36
2019-04-28T05:37:40.562Z,92.72
2019-04-28T05:38:42.093Z,92.47
2019-04-28T05:39:40.482Z,92.57
2019-04-28T05:40:40.321Z,92.36
2019-04-28T05:41:40.282Z,92.47
2019-04-28T05:42:40.272Z,92.78
2019-04-28T05:43:40.566Z,92.78
2019-04-28T05:44:40.803Z,92.57
2019-04-28T05:45:40.262Z,92.98
2019-04-28T05:46:40.416Z,92.78
2019-04-28T05:47:40.798Z,92.41
2019-04-28T05:48:40.801Z,93.19
2019-04-28T05:49:40.194Z,92.98
2019-04-28T05:50:40.224Z,93.39
2019-04-28T05:51:40.343Z,93.95
2019-04-28T05:52:40.441Z,93.64
2019-04-28T05:53:40.400Z,93.33
2019-04-28T05:54:40.427Z,92.82
2019-04-28T05:55:41.899Z,92.61
2019-04-28T05:56:40.114Z,92.61
2019-04-28T05:57:40.102Z,92.61
2019-04-28T05:58:40.293Z,92.68
2019-04-28T05:59:40.395Z,92.78
2019-04-28T06:00:41.864Z,92.57
2019-04-28T06:01:40.580Z,92.21
2019-04-28T06:02:53.533Z,92.36
2019-04-28T06:03:41.035Z,92.57
2019-04-28T06:04:40.513Z,92.41
2019-04-28T06:05:40.049Z,92.41
2019-04-28T06:06:40.512Z,92.41
2019-04-28T06:07:40.549Z,92.57
2019-04-28T06:08:40.719Z,92.78
2019-04-28T06:09:40.036Z,92.68
2019-04-28T06:10:40.042Z,92.36
2019-04-28T06:11:39.973Z,92.61
2019-04-28T06:12:40.563Z,91.86
2019-04-28T06:13:40.218Z,92.10
2019-04-28T06:14:40.330Z,91.03
2019-04-28T06:15:39.909Z,91.38
2019-04-28T06:16:40.606Z,91.59
2019-04-28T06:17:39.901Z,91.80
2019-04-28T06:18:42.188Z,91.80
2019-04-28T06:19:40.362Z,92.06
2019-04-28T06:20:40.680Z,92.21
2019-04-28T06:21:39.859Z,92.72
2019-04-28T06:22:39.822Z,92.47
2019-04-28T06:23:39.813Z,92.57
2019-04-28T06:24:39.857Z,92.41
2019-04-28T06:25:39.789Z,92.06
2019-04-28T06:26:39.819Z,92.10
2019-04-28T06:27:39.769Z,92.41
2019-04-28T06:28:39.756Z,92.31
2019-04-28T06:29:39.744Z,92.51
2019-04-28T06:30:39.733Z,92.16
2019-04-28T06:31:39.723Z,92.47
2019-04-28T06:32:39.739Z,92.31
2019-04-28T06:33:39.699Z,92.21
2019-04-28T06:34:39.705Z,92.47
2019-04-28T06:35:39.675Z,92.47
2019-04-28T06:36:39.673Z,92.36
2019-04-28T06:37:39.692Z,92.57
2019-04-28T06:38:39.645Z,92.16
2019-04-28T06:39:39.632Z,91.44
2019-04-28T06:40:39.621Z,91.03
2019-04-28T06:41:39.609Z,91.14
2019-04-28T06:42:39.600Z,91.14
2019-04-28T06:43:39.625Z,90.83
2019-04-28T06:44:39.576Z,90.83
2019-04-28T06:45:39.566Z,91.40
2019-04-28T06:46:39.555Z,92.02
2019-04-28T06:47:39.607Z,91.40
2019-04-28T06:48:39.532Z,90.58
2019-04-28T06:49:39.548Z,90.69
2019-04-28T06:50:39.513Z,91.09
2019-04-28T06:51:39.498Z,91.09
2019-04-28T06:52:39.487Z,90.48
2019-04-28T06:53:39.478Z,91.20
2019-04-28T06:54:39.487Z,90.58
2019-04-28T06:55:39.454Z,90.79
2019-04-28T06:56:39.450Z,91.20
2019-04-28T06:57:39.430Z,90.28
2019-04-28T06:58:39.422Z,90.37
2019-04-28T06:59:39.455Z,90.89
2019-04-28T07:00:39.399Z,90.48
2019-04-28T07:01:39.389Z,90.37
2019-04-28T07:02:39.378Z,90.58
2019-04-28T07:03:39.370Z,90.69
2019-04-28T07:04:39.354Z,91.05
2019-04-28T07:05:39.371Z,90.84
2019-04-28T07:06:39.333Z,89.11
2019-04-28T07:07:39.324Z,90.03
2019-04-28T07:08:39.317Z,89.31
2019-04-28T07:09:39.300Z,88.59
2019-04-28T07:10:39.340Z,88.80
2019-04-28T07:11:39.285Z,88.80
2019-04-28T07:12:39.270Z,89.72
2019-04-28T07:13:39.256Z,88.80
2019-04-28T07:14:39.248Z,89.31
2019-04-28T07:15:39.262Z,88.94
2019-04-28T07:16:39.225Z,89.87
2019-04-28T07:17:39.221Z,90.69
2019-04-28T07:18:39.203Z,90.48
2019-04-28T07:19:39.191Z,90.28
2019-04-28T07:20:39.207Z,90.79
2019-04-28T07:21:39.169Z,90.37
2019-04-28T07:22:39.159Z,90.42
2019-04-28T07:23:39.148Z,90.37
2019-04-28T07:24:39.137Z,90.58
2019-04-28T07:25:39.150Z,90.58
2019-04-28T07:26:39.114Z,90.79
2019-04-28T07:27:39.106Z,90.89
2019-04-28T07:28:39.094Z,90.99
2019-04-28T07:29:39.083Z,90.58
2019-04-28T07:30:39.098Z,90.83
2019-04-28T07:31:39.064Z,90.32
2019-04-28T07:32:39.049Z,90.73
2019-04-28T07:33:39.039Z,90.52
2019-04-28T07:34:39.026Z,90.42
2019-04-28T07:35:39.043Z,91.14
2019-04-28T07:36:39.007Z,90.62
2019-04-28T07:37:38.994Z,90.79
2019-04-28T07:38:38.983Z,90.79
2019-04-28T07:39:38.971Z,90.69
2019-04-28T07:40:38.986Z,91.09
2019-04-28T07:41:38.949Z,91.30
2019-04-28T07:42:38.937Z,90.58
2019-04-28T07:43:38.927Z,90.48
2019-04-28T07:44:38.916Z,90.54
2019-04-28T07:45:38.946Z,90.17
2019-04-28T07:46:38.894Z,90.13
2019-04-28T07:47:38.884Z,90.58
2019-04-28T07:48:38.872Z,90.07
2019-04-28T07:49:38.862Z,90.89
2019-04-28T07:50:38.852Z,91.05
2019-04-28T07:51:38.863Z,90.58
2019-04-28T07:52:38.830Z,91.05
2019-04-28T07:53:38.817Z,90.84
2019-04-28T07:54:40.163Z,89.87
2019-04-28T07:55:38.796Z,90.03
2019-04-28T07:56:38.808Z,90.17
2019-04-28T07:57:38.833Z,89.66
2019-04-28T07:58:38.761Z,88.94
2019-04-28T07:59:38.751Z,88.59
2019-04-28T08:00:38.739Z,89.00
2019-04-28T08:01:38.766Z,88.39
2019-04-28T08:02:38.726Z,87.98
2019-04-28T08:03:48.809Z,88.24
2019-04-28T08:04:39.698Z,87.63
2019-04-28T08:05:38.691Z,88.04
2019-04-28T08:06:38.675Z,87.16
2019-04-28T08:07:38.703Z,87.26
2019-04-28T08:08:38.653Z,88.08
2019-04-28T08:09:38.648Z,87.22
2019-04-28T08:10:38.630Z,86.81
2019-04-28T08:11:38.619Z,87.02
2019-04-28T08:12:38.611Z,86.51
2019-04-28T08:13:38.641Z,86.40
2019-04-28T08:14:38.644Z,86.51
2019-04-28T08:15:38.576Z,86.40
2019-04-28T08:16:38.564Z,86.91
2019-04-28T08:17:38.555Z,87.73
2019-04-28T08:18:38.544Z,87.73
2019-04-28T08:19:38.567Z,88.04
2019-04-28T08:20:38.523Z,87.94
2019-04-28T08:21:38.512Z,87.43
2019-04-28T08:22:38.501Z,87.32
2019-04-28T08:23:47.042Z,87.08
2019-04-28T08:24:39.502Z,87.59
2019-04-28T08:25:38.471Z,87.70
2019-04-28T08:26:38.458Z,87.79
2019-04-28T08:27:38.446Z,86.57
2019-04-28T08:28:38.436Z,85.85
2019-04-28T08:29:38.460Z,84.72
2019-04-28T08:30:38.417Z,84.11
2019-04-28T08:31:38.404Z,84.63
2019-04-28T08:32:38.395Z,83.81
2019-04-28T08:33:38.381Z,84.31
2019-04-28T08:34:38.370Z,84.11
2019-04-28T08:35:38.385Z,84.11
2019-04-28T08:36:38.350Z,83.91
2019-04-28T08:37:38.339Z,84.01
2019-04-28T08:38:38.333Z,84.07
2019-04-28T08:39:38.318Z,84.38
2019-04-28T08:40:38.333Z,84.17
2019-04-28T08:41:38.297Z,84.11
2019-04-28T08:42:38.284Z,84.93
2019-04-28T08:43:38.274Z,84.42
2019-04-28T08:44:38.271Z,84.38
2019-04-28T08:45:38.291Z,84.48
2019-04-28T08:46:38.251Z,84.07
2019-04-28T08:47:38.240Z,83.97
2019-04-28T08:48:38.217Z,83.93
2019-04-28T08:49:38.205Z,83.42
2019-04-28T08:50:38.223Z,82.84
2019-04-28T08:51:38.189Z,83.73
2019-04-28T08:52:38.191Z,83.32
2019-04-28T08:53:38.161Z,83.52
2019-04-28T08:54:38.148Z,83.22
2019-04-28T08:55:38.165Z,83.59
2019-04-28T08:56:38.127Z,82.15
2019-04-28T08:57:38.117Z,82.15
2019-04-28T08:58:38.105Z,82.05
2019-04-28T08:59:38.145Z,80.73
2019-04-28T09:00:38.109Z,81.13
2019-04-28T09:01:38.073Z,80.58
2019-04-28T09:02:38.060Z,79.39
2019-04-28T09:03:38.335Z,79.50
2019-04-28T09:04:38.058Z,80.21
2019-04-28T09:05:38.070Z,81.95
2019-04-28T09:06:38.032Z,80.52
2019-04-28T09:07:38.005Z,80.38
2019-04-28T09:08:38.015Z,80.38
2019-04-28T09:09:37.984Z,79.66
2019-04-28T09:10:38.001Z,80.58
2019-04-28T09:11:37.963Z,79.97
2019-04-28T09:12:37.953Z,78.85
2019-04-28T09:13:37.941Z,78.85
2019-04-28T09:14:37.930Z,79.25
2019-04-28T09:15:37.945Z,77.42
2019-04-28T09:16:37.909Z,77.62
2019-04-28T09:17:37.896Z,78.13
2019-04-28T09:18:37.962Z,78.41
2019-04-28T09:19:37.875Z,76.87
2019-04-28T09:20:37.890Z,76.67
2019-04-28T09:21:37.859Z,76.56
2019-04-28T09:22:37.845Z,75.95
2019-04-28T09:23:37.832Z,75.51
2019-04-28T09:24:37.820Z,74.79
2019-04-28T09:25:37.833Z,73.98
2019-04-28T09:26:37.804Z,74.05
2019-04-28T09:27:37.803Z,73.94
2019-04-28T09:28:37.823Z,73.40
2019-04-28T09:29:37.767Z,73.71
2019-04-28T09:30:37.808Z,74.18
2019-04-28T09:31:37.748Z,72.55
2019-04-28T09:32:37.735Z,71.84
2019-04-28T09:33:37.722Z,70.07
2019-04-28T09:34:37.711Z,70.51
2019-04-28T09:35:37.697Z,69.90
2019-04-28T09:36:37.716Z,69.93
2019-04-28T09:37:37.677Z,70.89
2019-04-28T09:38:37.668Z,70.75
2019-04-28T09:39:37.657Z,70.65
2019-04-28T09:40:37.644Z,70.34
2019-04-28T09:41:37.670Z,70.44
2019-04-28T09:42:37.623Z,70.44
2019-04-28T09:43:37.615Z,70.04
2019-04-28T09:44:37.599Z,71.46
2019-04-28T09:45:37.588Z,71.02
2019-04-28T09:46:37.578Z,70.75
2019-04-28T09:47:37.595Z,70.85
2019-04-28T09:48:37.555Z,70.10
2019-04-28T09:49:37.544Z,71.02
2019-04-28T09:50:37.533Z,69.59
2019-04-28T09:51:37.523Z,69.76
2019-04-28T09:52:37.604Z,69.19
2019-04-28T09:53:37.550Z,69.46
2019-04-28T09:54:37.492Z,68.44
2019-04-28T09:55:37.481Z,67.83
2019-04-28T09:56:37.473Z,68.75
2019-04-28T09:57:37.498Z,67.52
2019-04-28T09:58:37.451Z,67.73
2019-04-28T09:59:37.442Z,67.52
2019-04-28T10:00:37.427Z,68.04
2019-04-28T10:01:37.417Z,68.24
2019-04-28T10:02:37.407Z,68.24
2019-04-28T10:03:37.423Z,68.65
2019-04-28T10:04:41.699Z,67.90
2019-04-28T10:05:37.385Z,67.19
2019-04-28T10:06:37.388Z,67.19
2019-04-28T10:07:37.350Z,66.68
2019-04-28T10:08:37.362Z,66.68
2019-04-28T10:09:37.326Z,67.08
2019-04-28T10:10:37.316Z,67.02
2019-04-28T10:11:37.304Z,66.71
2019-04-28T10:12:37.294Z,67.63
2019-04-28T10:13:37.308Z,68.04
2019-04-28T10:14:38.252Z,68.17
2019-04-28T10:15:37.262Z,68.78
2019-04-28T10:16:37.252Z,68.81
2019-04-28T10:17:37.239Z,68.91
2019-04-28T10:18:37.267Z,69.22
2019-04-28T10:19:37.220Z,69.56
2019-04-28T10:20:37.208Z,69.35
2019-04-28T10:21:37.197Z,69.76
2019-04-28T10:22:37.187Z,69.96
2019-04-28T10:23:37.174Z,69.76
2019-04-28T10:24:37.186Z,70.07
2019-04-28T10:25:37.154Z,69.86
2019-04-28T10:26:37.142Z,69.76
2019-04-28T10:27:37.129Z,69.32
2019-04-28T10:28:37.120Z,69.22
2019-04-28T10:29:37.146Z,68.61
2019-04-28T10:30:37.099Z,68.37
2019-04-28T10:31:37.088Z,67.66
2019-04-28T10:32:37.083Z,68.27
2019-04-28T10:33:37.069Z,68.44
2019-04-28T10:34:37.055Z,67.32
2019-04-28T10:35:37.072Z,66.50
2019-04-28T10:36:37.035Z,66.41
2019-04-28T10:37:37.023Z,66.00
2019-04-28T10:38:37.012Z,66.17
2019-04-28T10:39:37.000Z,65.86
2019-04-28T10:40:37.028Z,65.77
2019-04-28T10:41:36.979Z,65.86
2019-04-28T10:42:36.967Z,65.94
2019-04-28T10:43:36.955Z,64.99
2019-04-28T10:44:36.944Z,64.04
2019-04-28T10:45:36.963Z,64.15
2019-04-28T10:46:36.921Z,64.25
2019-04-28T10:47:36.914Z,62.39
2019-04-28T10:48:36.899Z,62.76
2019-04-28T10:49:36.894Z,62.46
2019-04-28T10:50:36.920Z,62.66
2019-04-28T10:51:36.873Z,62.56
2019-04-28T10:52:36.858Z,62.76
2019-04-28T10:53:36.847Z,62.70
2019-04-28T10:54:36.837Z,63.10
2019-04-28T10:55:36.971Z,62.59
2019-04-28T10:56:36.840Z,62.59
2019-04-28T10:57:36.878Z,63.10
2019-04-28T10:58:36.790Z,62.79
2019-04-28T10:59:36.780Z,62.49
2019-04-28T11:00:36.769Z,62.49
2019-04-28T11:01:36.799Z,63.10
2019-04-28T11:02:36.748Z,61.85
2019-04-28T11:03:36.737Z,62.39
2019-04-28T11:04:36.776Z,62.70
2019-04-28T11:05:36.736Z,62.62
2019-04-28T11:06:36.703Z,62.39
2019-04-28T11:07:36.717Z,62.66
2019-04-28T11:08:36.703Z,62.66
2019-04-28T11:09:36.671Z,62.13
2019-04-28T11:10:36.661Z,62.23
2019-04-28T11:11:36.656Z,60.81
2019-04-28T11:12:36.662Z,60.30
2019-04-28T11:13:36.626Z,60.43
2019-04-28T11:14:36.628Z,60.66
2019-04-28T11:15:36.607Z,62.08
2019-04-28T11:16:36.594Z,62.21
2019-04-28T11:17:36.623Z,62.11
2019-04-28T11:18:36.572Z,62.52
2019-04-28T11:19:36.565Z,62.93
2019-04-28T11:20:36.548Z,62.62
2019-04-28T11:21:36.539Z,62.52
2019-04-28T11:22:36.529Z,62.52
2019-04-28T11:23:36.601Z,63.02
2019-04-28T11:24:36.508Z,62.39
2019-04-28T11:25:36.512Z,62.70
2019-04-28T11:26:36.484Z,62.70
2019-04-28T11:27:36.473Z,62.72
2019-04-28T11:28:37.925Z,63.13
2019-04-28T11:29:36.453Z,63.02
2019-04-28T11:30:36.441Z,63.06
2019-04-28T11:31:36.427Z,63.84
2019-04-28T11:32:36.416Z,62.75
2019-04-28T11:33:36.409Z,62.11
2019-04-28T11:34:36.432Z,62.35
2019-04-28T11:35:36.389Z,62.35
2019-04-28T11:36:36.379Z,62.85
2019-04-28T11:37:36.364Z,62.98
2019-04-28T11:38:36.358Z,62.88
2019-04-28T11:39:36.347Z,63.29
2019-04-28T11:40:36.354Z,63.09
2019-04-28T11:41:36.554Z,63.36
2019-04-28T11:42:36.311Z,63.16
2019-04-28T11:43:36.298Z,62.98
2019-04-28T11:44:36.294Z,64.20
2019-04-28T11:45:36.303Z,64.81
2019-04-28T11:46:36.268Z,64.84
2019-04-28T11:47:36.255Z,64.75
2019-04-28T11:48:36.244Z,64.34
2019-04-28T11:49:36.234Z,64.11
2019-04-28T11:50:36.261Z,64.41
2019-04-28T11:51:36.214Z,64.20
2019-04-28T11:52:36.211Z,63.73
2019-04-28T11:53:36.191Z,64.41
2019-04-28T11:54:36.183Z,64.31
2019-04-28T11:55:36.168Z,64.03
2019-04-28T11:56:41.739Z,64.44
2019-04-28T11:57:37.145Z,64.54
2019-04-28T11:58:36.137Z,64.44
2019-04-28T11:59:36.129Z,64.44
2019-04-28T12:00:36.120Z,64.64
2019-04-28T12:01:36.165Z,64.78
2019-04-28T12:02:36.092Z,65.39
2019-04-28T12:03:36.079Z,66.10
2019-04-28T12:04:36.072Z,65.39
2019-04-28T12:05:38.350Z,64.64
2019-04-28T12:06:36.049Z,64.75
2019-04-28T12:07:36.072Z,64.84
2019-04-28T12:08:36.025Z,64.64
2019-04-28T12:09:36.021Z,64.23
2019-04-28T12:10:36.006Z,64.84
2019-04-28T12:11:35.994Z,64.47
2019-04-28T12:12:35.983Z,63.24
2019-04-28T12:13:35.994Z,63.53
2019-04-28T12:14:35.966Z,64.23
2019-04-28T12:15:35.952Z,64.03
2019-04-28T12:16:35.937Z,64.00
2019-04-28T12:17:35.935Z,62.27
2019-04-28T12:18:35.953Z,62.75
2019-04-28T12:19:35.907Z,62.24
2019-04-28T12:20:35.893Z,62.11
2019-04-28T12:21:35.886Z,60.08
2019-04-28T12:22:35.871Z,59.95
2019-04-28T12:23:35.866Z,60.36
2019-04-28T12:24:35.878Z,60.25
2019-04-28T12:25:35.845Z,60.33
2019-04-28T12:26:35.830Z,59.92
2019-04-28T12:27:35.819Z,60.46
2019-04-28T12:28:35.806Z,60.76
2019-04-28T12:29:35.830Z,60.74
2019-04-28T12:30:35.816Z,59.82
2019-04-28T12:31:35.774Z,60.33
2019-04-28T12:32:35.769Z,60.25
2019-04-28T12:33:35.752Z,60.89
2019-04-28T12:34:35.795Z,60.79
2019-04-28T12:35:47.146Z,61.40
2019-04-28T12:36:36.742Z,62.21
2019-04-28T12:37:35.725Z,61.91
2019-04-28T12:38:35.700Z,62.11
2019-04-28T12:39:35.690Z,62.82
2019-04-28T12:40:35.712Z,62.11
2019-04-28T12:41:35.665Z,62.21
2019-04-28T12:42:35.658Z,61.88
2019-04-28T12:43:35.643Z,60.89
2019-04-28T12:44:35.650Z,60.49
2019-04-28T12:45:35.747Z,60.89
2019-04-28T12:46:35.639Z,62.01
2019-04-28T12:47:35.600Z,62.24
2019-04-28T12:48:35.590Z,62.24
2019-04-28T12:49:35.578Z,62.85
2019-04-28T12:50:35.567Z,62.96
2019-04-28T12:51:35.594Z,62.88
2019-04-28T12:52:35.547Z,62.58